sensor_id;sensor_type;location;lat;lon;timestamp;P1;durP1;ratioP1;P2;durP2;ratioP2
10529;SDS011;5313;48.834;9.228;2023-05-18T00:00:04;8.17;;;6.30;;
10529;SDS011;5313;48.834;9.228;2023-05-18T00:02:35;11.57;;;6.70;;
10529;SDS011;5313;48.834;9.228;2023-05-18T00:05:01;9.20;;;6.87;;
10529;SDS011;5313;48.834;9.228;2023-05-18T00:07:26;9.63;;;6.63;;
10529;SDS011;5313;48.834;9.228;2023-05-18T00:09:54;11.37;;;6.67;;
10529;SDS011;5313;48.834;9.228;2023-05-18T00:12:19;10.07;;;6.90;;
10529;SDS011;5313;48.834;9.228;2023-05-18T00:14:45;13.10;;;7.10;;
10529;SDS011;5313;48.834;9.228;2023-05-18T00:17:10;12.40;;;6.80;;
10529;SDS011;5313;48.834;9.228;2023-05-18T00:19:36;10.23;;;6.50;;
10529;SDS011;5313;48.834;9.228;2023-05-18T00:22:01;10.33;;;6.43;;
10529;SDS011;5313;48.834;9.228;2023-05-18T00:24:27;12.70;;;6.97;;
10529;SDS011;5313;48.834;9.228;2023-05-18T00:26:53;10.80;;;7.43;;
10529;SDS011;5313;48.834;9.228;2023-05-18T00:29:18;9.93;;;6.87;;
10529;SDS011;5313;48.834;9.228;2023-05-18T00:31:44;10.07;;;6.70;;
10529;SDS011;5313;48.834;9.228;2023-05-18T00:34:13;11.97;;;7.37;;
10529;SDS011;5313;48.834;9.228;2023-05-18T00:36:40;10.67;;;7.50;;
10529;SDS011;5313;48.834;9.228;2023-05-18T00:39:06;11.73;;;7.03;;
10529;SDS011;5313;48.834;9.228;2023-05-18T00:41:33;11.87;;;7.23;;
10529;SDS011;5313;48.834;9.228;2023-05-18T00:43:59;11.27;;;7.27;;
10529;SDS011;5313;48.834;9.228;2023-05-18T00:46:25;10.43;;;7.33;;
10529;SDS011;5313;48.834;9.228;2023-05-18T00:48:52;10.40;;;6.77;;
10529;SDS011;5313;48.834;9.228;2023-05-18T00:51:19;9.73;;;6.73;;
10529;SDS011;5313;48.834;9.228;2023-05-18T00:53:47;10.90;;;6.93;;
10529;SDS011;5313;48.834;9.228;2023-05-18T00:56:14;10.53;;;6.90;;
10529;SDS011;5313;48.834;9.228;2023-05-18T00:58:39;11.87;;;7.50;;
10529;SDS011;5313;48.834;9.228;2023-05-18T01:01:06;9.43;;;6.57;;
10529;SDS011;5313;48.834;9.228;2023-05-18T01:03:33;11.50;;;6.97;;
10529;SDS011;5313;48.834;9.228;2023-05-18T01:06:02;11.50;;;6.37;;
10529;SDS011;5313;48.834;9.228;2023-05-18T01:08:31;11.33;;;6.53;;
10529;SDS011;5313;48.834;9.228;2023-05-18T01:13:49;11.10;;;7.40;;
10529;SDS011;5313;48.834;9.228;2023-05-18T01:16:34;9.83;;;6.90;;
10529;SDS011;5313;48.834;9.228;2023-05-18T01:24:58;8.87;;;6.30;;
10529;SDS011;5313;48.834;9.228;2023-05-18T01:27:31;11.10;;;6.90;;
10529;SDS011;5313;48.834;9.228;2023-05-18T01:30:02;10.80;;;6.73;;
10529;SDS011;5313;48.834;9.228;2023-05-18T01:32:28;11.17;;;6.80;;
10529;SDS011;5313;48.834;9.228;2023-05-18T01:34:54;8.50;;;6.70;;
10529;SDS011;5313;48.834;9.228;2023-05-18T01:37:20;11.57;;;7.33;;
10529;SDS011;5313;48.834;9.228;2023-05-18T01:39:45;10.00;;;7.07;;
10529;SDS011;5313;48.834;9.228;2023-05-18T01:42:12;9.27;;;6.63;;
10529;SDS011;5313;48.834;9.228;2023-05-18T01:44:49;12.00;;;6.90;;
10529;SDS011;5313;48.834;9.228;2023-05-18T01:47:18;9.03;;;6.93;;
10529;SDS011;5313;48.834;9.228;2023-05-18T01:49:44;12.63;;;7.50;;
10529;SDS011;5313;48.834;9.228;2023-05-18T01:52:46;10.13;;;6.60;;
10529;SDS011;5313;48.834;9.228;2023-05-18T01:55:28;10.07;;;6.53;;
10529;SDS011;5313;48.834;9.228;2023-05-18T01:57:54;9.27;;;6.57;;
10529;SDS011;5313;48.834;9.228;2023-05-18T02:00:22;13.27;;;6.37;;
10529;SDS011;5313;48.834;9.228;2023-05-18T02:02:48;9.67;;;6.70;;
10529;SDS011;5313;48.834;9.228;2023-05-18T02:05:13;13.50;;;7.23;;
10529;SDS011;5313;48.834;9.228;2023-05-18T02:07:39;10.17;;;6.83;;
10529;SDS011;5313;48.834;9.228;2023-05-18T02:10:08;10.37;;;6.57;;
10529;SDS011;5313;48.834;9.228;2023-05-18T02:12:34;11.40;;;6.90;;
10529;SDS011;5313;48.834;9.228;2023-05-18T02:14:59;10.47;;;6.90;;
10529;SDS011;5313;48.834;9.228;2023-05-18T02:17:29;10.80;;;6.97;;
10529;SDS011;5313;48.834;9.228;2023-05-18T02:19:57;11.10;;;7.13;;
10529;SDS011;5313;48.834;9.228;2023-05-18T02:22:23;13.50;;;6.47;;
10529;SDS011;5313;48.834;9.228;2023-05-18T02:24:49;13.53;;;7.33;;
10529;SDS011;5313;48.834;9.228;2023-05-18T02:27:14;9.90;;;7.27;;
10529;SDS011;5313;48.834;9.228;2023-05-18T02:29:40;11.03;;;6.97;;
10529;SDS011;5313;48.834;9.228;2023-05-18T02:32:06;10.10;;;7.50;;
10529;SDS011;5313;48.834;9.228;2023-05-18T02:34:32;9.43;;;5.97;;
10529;SDS011;5313;48.834;9.228;2023-05-18T02:36:59;12.57;;;7.13;;
10529;SDS011;5313;48.834;9.228;2023-05-18T02:39:27;9.57;;;6.67;;
10529;SDS011;5313;48.834;9.228;2023-05-18T02:41:53;9.43;;;5.90;;
10529;SDS011;5313;48.834;9.228;2023-05-18T02:44:19;10.70;;;6.60;;
10529;SDS011;5313;48.834;9.228;2023-05-18T02:46:44;9.17;;;6.03;;
10529;SDS011;5313;48.834;9.228;2023-05-18T02:49:10;11.37;;;6.33;;
10529;SDS011;5313;48.834;9.228;2023-05-18T02:51:35;11.93;;;6.67;;
10529;SDS011;5313;48.834;9.228;2023-05-18T02:54:01;12.67;;;6.63;;
10529;SDS011;5313;48.834;9.228;2023-05-18T02:56:26;11.07;;;6.50;;
10529;SDS011;5313;48.834;9.228;2023-05-18T02:58:52;9.33;;;6.30;;
10529;SDS011;5313;48.834;9.228;2023-05-18T03:01:21;11.57;;;6.03;;
10529;SDS011;5313;48.834;9.228;2023-05-18T03:03:50;8.67;;;5.63;;
10529;SDS011;5313;48.834;9.228;2023-05-18T03:06:21;9.90;;;6.73;;
10529;SDS011;5313;48.834;9.228;2023-05-18T03:08:56;10.83;;;7.33;;
10529;SDS011;5313;48.834;9.228;2023-05-18T03:11:22;10.43;;;6.40;;
10529;SDS011;5313;48.834;9.228;2023-05-18T03:13:48;9.50;;;6.30;;
10529;SDS011;5313;48.834;9.228;2023-05-18T03:16:14;10.03;;;6.87;;
10529;SDS011;5313;48.834;9.228;2023-05-18T03:18:39;11.90;;;7.27;;
10529;SDS011;5313;48.834;9.228;2023-05-18T03:21:05;9.57;;;6.60;;
10529;SDS011;5313;48.834;9.228;2023-05-18T03:23:32;10.87;;;6.93;;
10529;SDS011;5313;48.834;9.228;2023-05-18T03:25:57;12.37;;;7.27;;
10529;SDS011;5313;48.834;9.228;2023-05-18T03:28:23;11.67;;;7.43;;
10529;SDS011;5313;48.834;9.228;2023-05-18T03:30:48;11.30;;;7.40;;
10529;SDS011;5313;48.834;9.228;2023-05-18T03:33:14;9.27;;;7.07;;
10529;SDS011;5313;48.834;9.228;2023-05-18T03:35:40;12.57;;;7.53;;
10529;SDS011;5313;48.834;9.228;2023-05-18T03:38:06;12.53;;;7.43;;
10529;SDS011;5313;48.834;9.228;2023-05-18T03:40:31;12.13;;;7.70;;
10529;SDS011;5313;48.834;9.228;2023-05-18T03:42:57;12.63;;;7.83;;
10529;SDS011;5313;48.834;9.228;2023-05-18T03:45:23;13.70;;;7.90;;
10529;SDS011;5313;48.834;9.228;2023-05-18T03:47:48;12.70;;;7.87;;
10529;SDS011;5313;48.834;9.228;2023-05-18T03:50:14;13.87;;;7.97;;
10529;SDS011;5313;48.834;9.228;2023-05-18T03:52:41;11.53;;;7.57;;
10529;SDS011;5313;48.834;9.228;2023-05-18T03:55:08;11.03;;;7.03;;
10529;SDS011;5313;48.834;9.228;2023-05-18T03:57:34;14.27;;;8.43;;
10529;SDS011;5313;48.834;9.228;2023-05-18T04:00:00;9.90;;;6.77;;
10529;SDS011;5313;48.834;9.228;2023-05-18T04:02:37;14.00;;;7.60;;
10529;SDS011;5313;48.834;9.228;2023-05-18T04:05:03;9.50;;;7.40;;
10529;SDS011;5313;48.834;9.228;2023-05-18T04:07:29;11.07;;;7.20;;
10529;SDS011;5313;48.834;9.228;2023-05-18T04:09:55;14.93;;;7.87;;
10529;SDS011;5313;48.834;9.228;2023-05-18T04:12:21;9.53;;;7.47;;
10529;SDS011;5313;48.834;9.228;2023-05-18T04:14:47;11.07;;;7.43;;
10529;SDS011;5313;48.834;9.228;2023-05-18T04:17:16;15.47;;;7.67;;
10529;SDS011;5313;48.834;9.228;2023-05-18T04:19:46;10.07;;;7.13;;
10529;SDS011;5313;48.834;9.228;2023-05-18T04:22:13;11.50;;;7.63;;
10529;SDS011;5313;48.834;9.228;2023-05-18T04:24:38;15.13;;;7.93;;
10529;SDS011;5313;48.834;9.228;2023-05-18T04:27:05;16.23;;;8.23;;
10529;SDS011;5313;48.834;9.228;2023-05-18T04:29:32;14.67;;;8.07;;
10529;SDS011;5313;48.834;9.228;2023-05-18T04:31:58;12.83;;;7.47;;
10529;SDS011;5313;48.834;9.228;2023-05-18T04:34:25;11.33;;;7.60;;
10529;SDS011;5313;48.834;9.228;2023-05-18T04:36:51;10.67;;;7.07;;
10529;SDS011;5313;48.834;9.228;2023-05-18T04:39:22;12.23;;;7.57;;
10529;SDS011;5313;48.834;9.228;2023-05-18T04:41:48;9.67;;;7.10;;
10529;SDS011;5313;48.834;9.228;2023-05-18T04:44:15;10.10;;;6.87;;
10529;SDS011;5313;48.834;9.228;2023-05-18T04:46:42;11.27;;;7.13;;
10529;SDS011;5313;48.834;9.228;2023-05-18T04:49:11;11.93;;;7.43;;
10529;SDS011;5313;48.834;9.228;2023-05-18T04:51:39;9.90;;;6.73;;
10529;SDS011;5313;48.834;9.228;2023-05-18T04:54:06;11.13;;;6.60;;
10529;SDS011;5313;48.834;9.228;2023-05-18T04:56:32;10.70;;;6.17;;
10529;SDS011;5313;48.834;9.228;2023-05-18T04:58:58;10.50;;;6.63;;
10529;SDS011;5313;48.834;9.228;2023-05-18T05:01:24;11.63;;;6.00;;
10529;SDS011;5313;48.834;9.228;2023-05-18T05:03:50;10.37;;;6.57;;
10529;SDS011;5313;48.834;9.228;2023-05-18T05:06:15;9.57;;;5.93;;
10529;SDS011;5313;48.834;9.228;2023-05-18T05:08:41;9.83;;;5.77;;
10529;SDS011;5313;48.834;9.228;2023-05-18T05:11:06;12.87;;;6.20;;
10529;SDS011;5313;48.834;9.228;2023-05-18T05:13:32;10.73;;;6.13;;
10529;SDS011;5313;48.834;9.228;2023-05-18T05:15:59;9.27;;;6.50;;
10529;SDS011;5313;48.834;9.228;2023-05-18T05:18:25;9.10;;;6.30;;
10529;SDS011;5313;48.834;9.228;2023-05-18T05:20:51;10.47;;;6.30;;
10529;SDS011;5313;48.834;9.228;2023-05-18T05:23:18;13.50;;;6.13;;
10529;SDS011;5313;48.834;9.228;2023-05-18T05:25:43;8.77;;;6.00;;
10529;SDS011;5313;48.834;9.228;2023-05-18T05:28:09;12.60;;;6.50;;
10529;SDS011;5313;48.834;9.228;2023-05-18T05:30:34;11.37;;;5.97;;
10529;SDS011;5313;48.834;9.228;2023-05-18T05:33:00;12.23;;;5.60;;
10529;SDS011;5313;48.834;9.228;2023-05-18T05:35:25;11.87;;;5.60;;
10529;SDS011;5313;48.834;9.228;2023-05-18T05:37:51;8.27;;;5.43;;
10529;SDS011;5313;48.834;9.228;2023-05-18T05:40:16;9.43;;;5.57;;
10529;SDS011;5313;48.834;9.228;2023-05-18T05:42:42;9.60;;;5.67;;
10529;SDS011;5313;48.834;9.228;2023-05-18T05:45:08;10.63;;;4.87;;
10529;SDS011;5313;48.834;9.228;2023-05-18T05:47:34;9.63;;;4.77;;
10529;SDS011;5313;48.834;9.228;2023-05-18T05:49:59;8.03;;;4.97;;
10529;SDS011;5313;48.834;9.228;2023-05-18T05:52:25;5.13;;;4.10;;
10529;SDS011;5313;48.834;9.228;2023-05-18T05:54:52;9.83;;;4.80;;
10529;SDS011;5313;48.834;9.228;2023-05-18T05:57:18;7.73;;;5.10;;
10529;SDS011;5313;48.834;9.228;2023-05-18T05:59:44;8.47;;;4.30;;
10529;SDS011;5313;48.834;9.228;2023-05-18T06:02:09;10.03;;;4.93;;
10529;SDS011;5313;48.834;9.228;2023-05-18T06:04:36;9.03;;;4.60;;
10529;SDS011;5313;48.834;9.228;2023-05-18T06:07:01;8.30;;;4.17;;
10529;SDS011;5313;48.834;9.228;2023-05-18T06:09:27;7.30;;;4.23;;
10529;SDS011;5313;48.834;9.228;2023-05-18T06:11:53;11.30;;;4.27;;
10529;SDS011;5313;48.834;9.228;2023-05-18T06:14:19;10.67;;;4.10;;
10529;SDS011;5313;48.834;9.228;2023-05-18T06:16:45;7.53;;;4.10;;
10529;SDS011;5313;48.834;9.228;2023-05-18T06:19:10;9.77;;;3.50;;
10529;SDS011;5313;48.834;9.228;2023-05-18T06:21:36;9.50;;;4.10;;
10529;SDS011;5313;48.834;9.228;2023-05-18T06:24:02;6.60;;;3.83;;
10529;SDS011;5313;48.834;9.228;2023-05-18T06:26:29;7.63;;;3.67;;
10529;SDS011;5313;48.834;9.228;2023-05-18T06:28:54;9.50;;;3.77;;
10529;SDS011;5313;48.834;9.228;2023-05-18T06:31:21;7.37;;;3.47;;
10529;SDS011;5313;48.834;9.228;2023-05-18T06:33:46;7.10;;;3.60;;
10529;SDS011;5313;48.834;9.228;2023-05-18T06:36:13;8.30;;;3.27;;
10529;SDS011;5313;48.834;9.228;2023-05-18T06:38:39;7.90;;;3.20;;
10529;SDS011;5313;48.834;9.228;2023-05-18T06:41:05;9.87;;;3.67;;
10529;SDS011;5313;48.834;9.228;2023-05-18T06:43:30;6.93;;;3.43;;
10529;SDS011;5313;48.834;9.228;2023-05-18T06:45:56;8.97;;;3.50;;
10529;SDS011;5313;48.834;9.228;2023-05-18T06:48:25;8.73;;;3.67;;
10529;SDS011;5313;48.834;9.228;2023-05-18T06:50:52;9.90;;;4.03;;
10529;SDS011;5313;48.834;9.228;2023-05-18T06:53:18;7.17;;;3.00;;
10529;SDS011;5313;48.834;9.228;2023-05-18T06:55:43;7.07;;;3.00;;
10529;SDS011;5313;48.834;9.228;2023-05-18T06:58:09;6.87;;;3.07;;
10529;SDS011;5313;48.834;9.228;2023-05-18T07:00:34;6.83;;;3.00;;
10529;SDS011;5313;48.834;9.228;2023-05-18T07:03:00;8.13;;;3.33;;
10529;SDS011;5313;48.834;9.228;2023-05-18T07:05:26;8.93;;;3.60;;
10529;SDS011;5313;48.834;9.228;2023-05-18T07:07:52;8.63;;;3.30;;
10529;SDS011;5313;48.834;9.228;2023-05-18T07:10:17;6.27;;;3.00;;
10529;SDS011;5313;48.834;9.228;2023-05-18T07:12:43;7.30;;;2.93;;
10529;SDS011;5313;48.834;9.228;2023-05-18T07:15:08;6.60;;;3.20;;
10529;SDS011;5313;48.834;9.228;2023-05-18T07:17:35;7.57;;;3.43;;
10529;SDS011;5313;48.834;9.228;2023-05-18T07:20:01;5.87;;;2.80;;
10529;SDS011;5313;48.834;9.228;2023-05-18T07:22:29;9.33;;;3.13;;
10529;SDS011;5313;48.834;9.228;2023-05-18T07:24:55;6.93;;;2.93;;
10529;SDS011;5313;48.834;9.228;2023-05-18T07:27:22;6.57;;;2.83;;
10529;SDS011;5313;48.834;9.228;2023-05-18T07:29:48;6.30;;;2.90;;
10529;SDS011;5313;48.834;9.228;2023-05-18T07:32:13;7.17;;;2.83;;
10529;SDS011;5313;48.834;9.228;2023-05-18T07:34:39;12.13;;;3.00;;
10529;SDS011;5313;48.834;9.228;2023-05-18T07:37:07;7.50;;;3.30;;
10529;SDS011;5313;48.834;9.228;2023-05-18T07:39:33;5.40;;;3.17;;
10529;SDS011;5313;48.834;9.228;2023-05-18T07:42:00;10.90;;;3.97;;
10529;SDS011;5313;48.834;9.228;2023-05-18T07:44:25;8.90;;;3.27;;
10529;SDS011;5313;48.834;9.228;2023-05-18T07:46:51;8.20;;;3.07;;
10529;SDS011;5313;48.834;9.228;2023-05-18T07:49:17;7.07;;;3.07;;
10529;SDS011;5313;48.834;9.228;2023-05-18T07:51:42;8.70;;;3.40;;
10529;SDS011;5313;48.834;9.228;2023-05-18T07:54:08;5.63;;;2.80;;
10529;SDS011;5313;48.834;9.228;2023-05-18T07:56:34;7.20;;;3.20;;
10529;SDS011;5313;48.834;9.228;2023-05-18T07:59:00;7.73;;;2.63;;
10529;SDS011;5313;48.834;9.228;2023-05-18T08:01:25;7.73;;;3.13;;
10529;SDS011;5313;48.834;9.228;2023-05-18T08:03:54;8.63;;;2.90;;
10529;SDS011;5313;48.834;9.228;2023-05-18T08:06:20;5.00;;;2.73;;
10529;SDS011;5313;48.834;9.228;2023-05-18T08:08:45;8.33;;;2.90;;
10529;SDS011;5313;48.834;9.228;2023-05-18T08:11:11;7.20;;;2.77;;
10529;SDS011;5313;48.834;9.228;2023-05-18T08:13:36;5.93;;;2.70;;
10529;SDS011;5313;48.834;9.228;2023-05-18T08:16:02;4.77;;;2.50;;
10529;SDS011;5313;48.834;9.228;2023-05-18T08:18:27;9.20;;;2.77;;
10529;SDS011;5313;48.834;9.228;2023-05-18T08:20:53;5.70;;;2.53;;
10529;SDS011;5313;48.834;9.228;2023-05-18T08:23:19;6.67;;;2.60;;
10529;SDS011;5313;48.834;9.228;2023-05-18T08:25:45;6.67;;;2.63;;
10529;SDS011;5313;48.834;9.228;2023-05-18T08:28:10;8.20;;;2.80;;
10529;SDS011;5313;48.834;9.228;2023-05-18T08:30:36;7.50;;;2.87;;
10529;SDS011;5313;48.834;9.228;2023-05-18T08:33:01;8.37;;;2.97;;
10529;SDS011;5313;48.834;9.228;2023-05-18T08:35:27;6.03;;;2.73;;
10529;SDS011;5313;48.834;9.228;2023-05-18T08:37:53;9.27;;;2.70;;
10529;SDS011;5313;48.834;9.228;2023-05-18T08:40:20;6.23;;;2.70;;
10529;SDS011;5313;48.834;9.228;2023-05-18T08:42:47;7.77;;;2.97;;
10529;SDS011;5313;48.834;9.228;2023-05-18T08:45:28;8.60;;;2.43;;
10529;SDS011;5313;48.834;9.228;2023-05-18T08:47:59;5.37;;;2.33;;
10529;SDS011;5313;48.834;9.228;2023-05-18T08:50:26;6.43;;;2.43;;
10529;SDS011;5313;48.834;9.228;2023-05-18T08:52:55;4.73;;;2.10;;
10529;SDS011;5313;48.834;9.228;2023-05-18T08:55:27;7.73;;;2.70;;
10529;SDS011;5313;48.834;9.228;2023-05-18T08:57:54;9.60;;;2.80;;
10529;SDS011;5313;48.834;9.228;2023-05-18T09:00:23;6.13;;;2.73;;
10529;SDS011;5313;48.834;9.228;2023-05-18T09:02:49;9.07;;;2.80;;
10529;SDS011;5313;48.834;9.228;2023-05-18T09:05:15;7.07;;;2.73;;
10529;SDS011;5313;48.834;9.228;2023-05-18T09:07:42;5.33;;;2.57;;
10529;SDS011;5313;48.834;9.228;2023-05-18T09:10:11;7.70;;;2.70;;
10529;SDS011;5313;48.834;9.228;2023-05-18T09:12:40;8.13;;;3.10;;
10529;SDS011;5313;48.834;9.228;2023-05-18T09:15:10;8.37;;;2.90;;
10529;SDS011;5313;48.834;9.228;2023-05-18T09:17:37;6.10;;;2.97;;
10529;SDS011;5313;48.834;9.228;2023-05-18T09:20:03;4.50;;;2.77;;
10529;SDS011;5313;48.834;9.228;2023-05-18T09:22:30;6.90;;;3.10;;
10529;SDS011;5313;48.834;9.228;2023-05-18T09:24:56;6.97;;;2.47;;
10529;SDS011;5313;48.834;9.228;2023-05-18T09:27:22;5.40;;;2.40;;
10529;SDS011;5313;48.834;9.228;2023-05-18T09:29:51;6.07;;;2.67;;
10529;SDS011;5313;48.834;9.228;2023-05-18T09:32:21;6.10;;;3.17;;
10529;SDS011;5313;48.834;9.228;2023-05-18T09:34:47;6.67;;;2.70;;
10529;SDS011;5313;48.834;9.228;2023-05-18T09:37:16;6.30;;;2.73;;
10529;SDS011;5313;48.834;9.228;2023-05-18T09:39:43;9.67;;;3.33;;
10529;SDS011;5313;48.834;9.228;2023-05-18T09:42:09;7.17;;;3.17;;
10529;SDS011;5313;48.834;9.228;2023-05-18T09:44:36;9.63;;;3.00;;
10529;SDS011;5313;48.834;9.228;2023-05-18T09:47:02;7.73;;;3.00;;
10529;SDS011;5313;48.834;9.228;2023-05-18T09:49:32;4.70;;;2.43;;
10529;SDS011;5313;48.834;9.228;2023-05-18T09:51:57;8.63;;;2.80;;
10529;SDS011;5313;48.834;9.228;2023-05-18T09:54:26;6.73;;;2.80;;
10529;SDS011;5313;48.834;9.228;2023-05-18T09:56:52;8.40;;;2.77;;
10529;SDS011;5313;48.834;9.228;2023-05-18T09:59:17;7.13;;;2.80;;
10529;SDS011;5313;48.834;9.228;2023-05-18T10:02:02;4.93;;;2.63;;
10529;SDS011;5313;48.834;9.228;2023-05-18T10:04:39;9.53;;;2.80;;
10529;SDS011;5313;48.834;9.228;2023-05-18T10:07:08;5.37;;;2.80;;
10529;SDS011;5313;48.834;9.228;2023-05-18T10:09:41;6.87;;;2.70;;
10529;SDS011;5313;48.834;9.228;2023-05-18T10:12:11;5.70;;;2.50;;
10529;SDS011;5313;48.834;9.228;2023-05-18T10:14:42;7.27;;;2.70;;
10529;SDS011;5313;48.834;9.228;2023-05-18T10:17:12;8.70;;;3.00;;
10529;SDS011;5313;48.834;9.228;2023-05-18T10:19:39;6.60;;;2.83;;
10529;SDS011;5313;48.834;9.228;2023-05-18T10:22:06;10.67;;;2.73;;
10529;SDS011;5313;48.834;9.228;2023-05-18T10:24:34;6.07;;;2.80;;
10529;SDS011;5313;48.834;9.228;2023-05-18T10:27:05;6.30;;;2.60;;
10529;SDS011;5313;48.834;9.228;2023-05-18T10:29:32;6.43;;;3.00;;
10529;SDS011;5313;48.834;9.228;2023-05-18T10:31:59;8.17;;;2.77;;
10529;SDS011;5313;48.834;9.228;2023-05-18T10:34:27;8.77;;;2.60;;
10529;SDS011;5313;48.834;9.228;2023-05-18T10:36:54;8.83;;;3.00;;
10529;SDS011;5313;48.834;9.228;2023-05-18T10:39:21;8.93;;;2.57;;
10529;SDS011;5313;48.834;9.228;2023-05-18T10:41:48;8.63;;;2.50;;
10529;SDS011;5313;48.834;9.228;2023-05-18T10:44:15;10.50;;;3.10;;
10529;SDS011;5313;48.834;9.228;2023-05-18T10:46:40;6.53;;;2.70;;
10529;SDS011;5313;48.834;9.228;2023-05-18T10:49:07;5.07;;;2.63;;
10529;SDS011;5313;48.834;9.228;2023-05-18T10:51:37;6.97;;;2.77;;
10529;SDS011;5313;48.834;9.228;2023-05-18T10:54:11;7.73;;;2.50;;
10529;SDS011;5313;48.834;9.228;2023-05-18T10:56:42;8.60;;;2.90;;
10529;SDS011;5313;48.834;9.228;2023-05-18T10:59:10;6.50;;;2.90;;
10529;SDS011;5313;48.834;9.228;2023-05-18T11:01:37;6.57;;;2.60;;
10529;SDS011;5313;48.834;9.228;2023-05-18T11:04:05;4.97;;;2.40;;
10529;SDS011;5313;48.834;9.228;2023-05-18T11:06:30;7.80;;;2.40;;
10529;SDS011;5313;48.834;9.228;2023-05-18T11:08:59;5.93;;;2.47;;
10529;SDS011;5313;48.834;9.228;2023-05-18T11:11:25;7.47;;;2.70;;
10529;SDS011;5313;48.834;9.228;2023-05-18T11:13:54;6.33;;;2.43;;
10529;SDS011;5313;48.834;9.228;2023-05-18T11:16:33;4.50;;;2.23;;
10529;SDS011;5313;48.834;9.228;2023-05-18T11:19:06;7.40;;;2.57;;
10529;SDS011;5313;48.834;9.228;2023-05-18T11:24:21;5.57;;;2.60;;
10529;SDS011;5313;48.834;9.228;2023-05-18T11:26:55;5.90;;;2.10;;
10529;SDS011;5313;48.834;9.228;2023-05-18T11:29:42;5.57;;;2.40;;
10529;SDS011;5313;48.834;9.228;2023-05-18T11:32:22;4.00;;;2.40;;
10529;SDS011;5313;48.834;9.228;2023-05-18T11:34:50;5.23;;;2.20;;
10529;SDS011;5313;48.834;9.228;2023-05-18T11:37:46;8.97;;;2.40;;
10529;SDS011;5313;48.834;9.228;2023-05-18T11:40:03;6.57;;;3.53;;
10529;SDS011;5313;48.834;9.228;2023-05-18T11:42:35;9.57;;;2.57;;
10529;SDS011;5313;48.834;9.228;2023-05-18T11:47:33;7.10;;;2.50;;
10529;SDS011;5313;48.834;9.228;2023-05-18T11:50:00;5.13;;;2.40;;
10529;SDS011;5313;48.834;9.228;2023-05-18T11:52:26;6.40;;;2.17;;
10529;SDS011;5313;48.834;9.228;2023-05-18T11:54:53;5.37;;;2.20;;
10529;SDS011;5313;48.834;9.228;2023-05-18T11:57:23;6.00;;;2.50;;
10529;SDS011;5313;48.834;9.228;2023-05-18T11:59:57;6.07;;;2.43;;
10529;SDS011;5313;48.834;9.228;2023-05-18T12:02:24;9.47;;;2.93;;
10529;SDS011;5313;48.834;9.228;2023-05-18T12:04:52;6.30;;;2.40;;
10529;SDS011;5313;48.834;9.228;2023-05-18T12:07:19;5.47;;;1.93;;
10529;SDS011;5313;48.834;9.228;2023-05-18T12:09:46;5.40;;;2.70;;
10529;SDS011;5313;48.834;9.228;2023-05-18T12:12:13;4.77;;;2.03;;
10529;SDS011;5313;48.834;9.228;2023-05-18T12:14:41;5.83;;;2.13;;
10529;SDS011;5313;48.834;9.228;2023-05-18T12:17:08;4.83;;;2.20;;
10529;SDS011;5313;48.834;9.228;2023-05-18T12:19:41;5.30;;;2.27;;
10529;SDS011;5313;48.834;9.228;2023-05-18T12:22:08;8.27;;;3.03;;
10529;SDS011;5313;48.834;9.228;2023-05-18T12:24:39;9.87;;;2.47;;
10529;SDS011;5313;48.834;9.228;2023-05-18T12:27:06;5.97;;;2.20;;
10529;SDS011;5313;48.834;9.228;2023-05-18T12:29:33;5.17;;;2.10;;
10529;SDS011;5313;48.834;9.228;2023-05-18T12:32:09;5.47;;;2.03;;
10529;SDS011;5313;48.834;9.228;2023-05-18T12:34:36;4.97;;;2.10;;
10529;SDS011;5313;48.834;9.228;2023-05-18T12:37:03;5.40;;;2.57;;
10529;SDS011;5313;48.834;9.228;2023-05-18T12:39:29;9.07;;;2.60;;
10529;SDS011;5313;48.834;9.228;2023-05-18T12:42:16;5.97;;;2.90;;
10529;SDS011;5313;48.834;9.228;2023-05-18T12:44:43;8.20;;;2.60;;
10529;SDS011;5313;48.834;9.228;2023-05-18T12:47:12;5.70;;;2.40;;
10529;SDS011;5313;48.834;9.228;2023-05-18T12:49:39;4.93;;;2.13;;
10529;SDS011;5313;48.834;9.228;2023-05-18T12:52:09;7.60;;;2.27;;
10529;SDS011;5313;48.834;9.228;2023-05-18T12:54:46;5.60;;;2.30;;
10529;SDS011;5313;48.834;9.228;2023-05-18T12:57:13;6.77;;;2.70;;
10529;SDS011;5313;48.834;9.228;2023-05-18T12:59:46;4.80;;;1.90;;
10529;SDS011;5313;48.834;9.228;2023-05-18T13:02:32;7.80;;;2.40;;
10529;SDS011;5313;48.834;9.228;2023-05-18T13:05:05;5.50;;;2.40;;
10529;SDS011;5313;48.834;9.228;2023-05-18T13:07:40;6.27;;;2.20;;
10529;SDS011;5313;48.834;9.228;2023-05-18T13:10:07;6.70;;;2.23;;
10529;SDS011;5313;48.834;9.228;2023-05-18T13:12:37;9.20;;;2.13;;
10529;SDS011;5313;48.834;9.228;2023-05-18T13:15:12;6.80;;;2.20;;
10529;SDS011;5313;48.834;9.228;2023-05-18T13:17:38;7.10;;;2.27;;
10529;SDS011;5313;48.834;9.228;2023-05-18T13:20:11;6.53;;;2.50;;
10529;SDS011;5313;48.834;9.228;2023-05-18T13:22:38;11.63;;;2.20;;
10529;SDS011;5313;48.834;9.228;2023-05-18T13:25:03;6.97;;;2.20;;
10529;SDS011;5313;48.834;9.228;2023-05-18T13:27:30;6.03;;;2.37;;
10529;SDS011;5313;48.834;9.228;2023-05-18T13:29:56;6.63;;;2.27;;
10529;SDS011;5313;48.834;9.228;2023-05-18T13:32:23;6.47;;;2.23;;
10529;SDS011;5313;48.834;9.228;2023-05-18T13:34:49;7.07;;;2.10;;
10529;SDS011;5313;48.834;9.228;2023-05-18T13:37:16;5.47;;;2.47;;
10529;SDS011;5313;48.834;9.228;2023-05-18T13:39:42;8.57;;;2.10;;
10529;SDS011;5313;48.834;9.228;2023-05-18T13:42:07;5.27;;;2.33;;
10529;SDS011;5313;48.834;9.228;2023-05-18T13:44:33;5.33;;;1.80;;
10529;SDS011;5313;48.834;9.228;2023-05-18T13:46:59;4.43;;;2.20;;
10529;SDS011;5313;48.834;9.228;2023-05-18T13:49:24;5.23;;;1.60;;
10529;SDS011;5313;48.834;9.228;2023-05-18T13:51:50;9.83;;;2.47;;
10529;SDS011;5313;48.834;9.228;2023-05-18T13:54:15;5.93;;;1.93;;
10529;SDS011;5313;48.834;9.228;2023-05-18T13:56:41;9.77;;;2.17;;
10529;SDS011;5313;48.834;9.228;2023-05-18T13:59:06;5.90;;;1.80;;
10529;SDS011;5313;48.834;9.228;2023-05-18T14:01:32;5.97;;;2.00;;
10529;SDS011;5313;48.834;9.228;2023-05-18T14:03:58;4.03;;;1.87;;
10529;SDS011;5313;48.834;9.228;2023-05-18T14:06:24;5.40;;;2.10;;
10529;SDS011;5313;48.834;9.228;2023-05-18T14:08:51;3.63;;;1.97;;
10529;SDS011;5313;48.834;9.228;2023-05-18T14:11:17;6.80;;;2.37;;
10529;SDS011;5313;48.834;9.228;2023-05-18T14:13:43;5.53;;;1.80;;
10529;SDS011;5313;48.834;9.228;2023-05-18T14:16:08;7.93;;;2.20;;
10529;SDS011;5313;48.834;9.228;2023-05-18T14:18:34;7.23;;;2.07;;
10529;SDS011;5313;48.834;9.228;2023-05-18T14:20:59;5.27;;;2.03;;
10529;SDS011;5313;48.834;9.228;2023-05-18T14:23:27;5.60;;;2.43;;
10529;SDS011;5313;48.834;9.228;2023-05-18T14:25:53;6.77;;;2.07;;
10529;SDS011;5313;48.834;9.228;2023-05-18T14:28:18;8.17;;;2.10;;
10529;SDS011;5313;48.834;9.228;2023-05-18T14:30:44;5.27;;;1.63;;
10529;SDS011;5313;48.834;9.228;2023-05-18T14:33:09;7.47;;;2.63;;
10529;SDS011;5313;48.834;9.228;2023-05-18T14:35:35;5.07;;;1.93;;
10529;SDS011;5313;48.834;9.228;2023-05-18T14:38:00;4.90;;;2.00;;
10529;SDS011;5313;48.834;9.228;2023-05-18T14:40:26;8.57;;;2.10;;
10529;SDS011;5313;48.834;9.228;2023-05-18T14:42:52;6.80;;;2.30;;
10529;SDS011;5313;48.834;9.228;2023-05-18T14:45:18;5.80;;;2.03;;
10529;SDS011;5313;48.834;9.228;2023-05-18T14:47:44;8.73;;;2.13;;
10529;SDS011;5313;48.834;9.228;2023-05-18T14:50:09;5.73;;;2.57;;
10529;SDS011;5313;48.834;9.228;2023-05-18T14:52:35;8.67;;;2.60;;
10529;SDS011;5313;48.834;9.228;2023-05-18T14:55:01;10.13;;;2.17;;
10529;SDS011;5313;48.834;9.228;2023-05-18T14:57:26;6.43;;;2.20;;
10529;SDS011;5313;48.834;9.228;2023-05-18T14:59:52;5.80;;;1.87;;
10529;SDS011;5313;48.834;9.228;2023-05-18T15:02:17;5.47;;;1.80;;
10529;SDS011;5313;48.834;9.228;2023-05-18T15:04:43;6.53;;;2.07;;
10529;SDS011;5313;48.834;9.228;2023-05-18T15:07:09;4.77;;;1.70;;
10529;SDS011;5313;48.834;9.228;2023-05-18T15:09:34;8.93;;;2.03;;
10529;SDS011;5313;48.834;9.228;2023-05-18T15:12:00;6.30;;;2.10;;